createdAt,value
2023-09-17T00:01:55.190Z,5.20
2023-09-17T00:04:22.583Z,5.47
2023-09-17T00:06:49.829Z,9.52
2023-09-17T00:09:19.019Z,6.25
2023-09-17T00:11:46.635Z,5.38
2023-09-17T00:14:13.852Z,5.68
2023-09-17T00:16:41.326Z,6.88
2023-09-17T00:19:08.537Z,6.40
2023-09-17T00:21:35.608Z,8.23
2023-09-17T00:24:02.668Z,4.57
2023-09-17T00:26:30.024Z,6.13
2023-09-17T00:28:57.191Z,5.70
2023-09-17T00:31:24.269Z,5.80
2023-09-17T00:33:51.537Z,5.43
2023-09-17T00:36:18.542Z,4.30
2023-09-17T00:38:45.504Z,5.75
2023-09-17T00:41:13.668Z,5.35
2023-09-17T00:43:40.838Z,5.43
2023-09-17T00:46:08.430Z,5.43
2023-09-17T00:48:35.907Z,7.18
2023-09-17T00:51:04.525Z,7.45
2023-09-17T00:53:31.662Z,6.75
2023-09-17T00:55:59.767Z,4.18
2023-09-17T00:58:29.866Z,6.43
2023-09-17T01:01:01.944Z,5.68
2023-09-17T01:03:29.491Z,7.75
2023-09-17T01:05:58.053Z,6.93
2023-09-17T01:08:26.939Z,5.35
2023-09-17T01:10:58.186Z,6.00
2023-09-17T01:13:25.531Z,6.40
2023-09-17T01:15:53.770Z,4.85
2023-09-17T01:18:23.283Z,5.35
2023-09-17T01:21:03.051Z,3.90
2023-09-17T01:23:39.997Z,5.13
2023-09-17T01:26:22.131Z,6.55
2023-09-17T01:28:53.501Z,7.07
2023-09-17T01:31:21.908Z,5.97
2023-09-17T01:33:49.834Z,6.20
2023-09-17T01:36:25.283Z,6.40
2023-09-17T01:39:05.374Z,9.68
2023-09-17T01:41:35.280Z,7.53
2023-09-17T01:44:05.120Z,9.13
2023-09-17T01:46:34.576Z,9.43
2023-09-17T01:49:02.279Z,9.65
2023-09-17T01:51:31.654Z,13.52
2023-09-17T01:53:59.496Z,12.02
2023-09-17T01:56:27.518Z,13.70
2023-09-17T01:58:54.644Z,14.70
2023-09-17T02:01:21.794Z,15.15
2023-09-17T02:03:51.314Z,13.60
2023-09-17T02:06:18.880Z,15.55
2023-09-17T02:08:45.919Z,15.43
2023-09-17T02:11:12.888Z,15.30
2023-09-17T02:13:40.126Z,15.40
2023-09-17T02:16:07.347Z,15.50
2023-09-17T02:18:34.561Z,15.68
2023-09-17T02:21:01.783Z,17.45
2023-09-17T02:23:28.801Z,17.33
2023-09-17T02:25:55.777Z,20.67
2023-09-17T02:28:22.817Z,19.05
2023-09-17T02:30:49.728Z,20.17
2023-09-17T02:33:17.005Z,21.20
2023-09-17T02:35:44.024Z,19.17
2023-09-17T02:38:10.985Z,21.67
2023-09-17T02:40:38.009Z,20.30
2023-09-17T02:43:05.297Z,22.98
2023-09-17T02:45:32.698Z,22.00
2023-09-17T02:47:59.710Z,25.73
2023-09-17T02:50:26.765Z,26.25
2023-09-17T02:52:53.850Z,25.20
2023-09-17T02:55:20.833Z,25.08
2023-09-17T02:57:49.743Z,27.00
2023-09-17T03:00:18.544Z,27.70
2023-09-17T03:02:48.994Z,30.05
2023-09-17T03:05:17.924Z,27.73
2023-09-17T03:07:45.208Z,26.60
2023-09-17T03:10:13.436Z,27.67
2023-09-17T03:12:40.467Z,28.25
2023-09-17T03:15:08.502Z,29.45
2023-09-17T03:17:38.695Z,33.92
2023-09-17T03:20:15.324Z,28.10
2023-09-17T03:22:42.620Z,30.23
2023-09-17T03:25:09.967Z,30.60
2023-09-17T03:27:37.017Z,32.72
2023-09-17T03:30:06.744Z,29.33
2023-09-17T03:32:33.774Z,33.83
2023-09-17T03:35:02.486Z,36.90
2023-09-17T03:37:29.669Z,31.98
2023-09-17T03:40:10.151Z,35.45
2023-09-17T03:42:37.459Z,33.38
2023-09-17T03:45:06.745Z,36.22
2023-09-17T03:47:34.425Z,36.83
2023-09-17T03:50:01.508Z,34.70
2023-09-17T03:52:28.945Z,36.13
2023-09-17T03:54:56.404Z,35.22
2023-09-17T03:57:24.453Z,35.13
2023-09-17T03:59:51.715Z,38.03
2023-09-17T04:02:19.156Z,35.00
2023-09-17T04:04:46.285Z,42.55
2023-09-17T04:07:13.470Z,34.85
2023-09-17T04:09:40.434Z,38.28
2023-09-17T04:12:08.236Z,41.38
2023-09-17T04:14:35.123Z,40.08
2023-09-17T04:17:04.050Z,42.30
2023-09-17T04:19:31.637Z,37.45
2023-09-17T04:21:58.580Z,41.65
2023-09-17T04:24:26.410Z,39.78
2023-09-17T04:26:54.926Z,45.22
2023-09-17T04:29:22.050Z,41.42
2023-09-17T04:31:49.080Z,40.35
2023-09-17T04:34:16.992Z,41.95
2023-09-17T04:36:44.182Z,42.97
2023-09-17T04:39:13.468Z,43.20
2023-09-17T04:41:40.720Z,43.55
2023-09-17T04:44:08.886Z,42.15
2023-09-17T04:46:36.099Z,43.47
2023-09-17T04:49:03.869Z,39.88
2023-09-17T04:51:30.742Z,41.38
2023-09-17T04:53:58.695Z,48.00
2023-09-17T04:56:25.578Z,42.15
2023-09-17T04:58:52.641Z,41.55
2023-09-17T05:01:19.825Z,45.22
2023-09-17T05:03:49.704Z,42.20
2023-09-17T05:06:16.877Z,44.58
2023-09-17T05:08:43.826Z,46.83
2023-09-17T05:11:10.858Z,42.00
2023-09-17T05:13:38.020Z,42.20
2023-09-17T05:16:06.008Z,46.05
2023-09-17T05:18:33.216Z,47.30
2023-09-17T05:21:00.362Z,53.63
2023-09-17T05:23:27.577Z,45.03
2023-09-17T05:25:56.353Z,46.67
2023-09-17T05:28:25.097Z,47.15
2023-09-17T05:30:54.204Z,47.10
2023-09-17T05:33:21.169Z,47.47
2023-09-17T05:35:48.620Z,45.90
2023-09-17T05:38:17.577Z,45.35
2023-09-17T05:40:44.613Z,47.58
2023-09-17T05:43:11.778Z,44.55
2023-09-17T05:45:39.113Z,44.17
2023-09-17T05:48:06.580Z,43.67
2023-09-17T05:50:33.749Z,42.90
2023-09-17T05:53:00.897Z,48.65
2023-09-17T05:55:28.090Z,48.50
2023-09-17T05:57:55.001Z,44.92
2023-09-17T06:00:23.406Z,49.55
2023-09-17T06:02:50.392Z,50.72
2023-09-17T06:05:17.579Z,47.20
2023-09-17T06:07:44.833Z,51.35
2023-09-17T06:10:12.143Z,54.22
2023-09-17T06:12:39.166Z,60.45
2023-09-17T06:15:06.997Z,51.95
2023-09-17T06:17:34.511Z,56.08
2023-09-17T06:20:01.901Z,51.00
2023-09-17T06:22:28.930Z,49.53
2023-09-17T06:24:56.287Z,53.72
2023-09-17T06:27:23.210Z,52.65
2023-09-17T06:29:50.778Z,56.15
2023-09-17T06:32:18.195Z,54.80
2023-09-17T06:34:45.343Z,58.42
2023-09-17T06:37:12.557Z,58.58
2023-09-17T06:39:39.492Z,61.00
2023-09-17T06:42:06.858Z,55.70
2023-09-17T06:44:33.860Z,58.65
2023-09-17T06:47:01.396Z,56.35
2023-09-17T06:49:28.734Z,60.03
2023-09-17T06:51:56.779Z,55.95
2023-09-17T06:54:23.875Z,57.83
2023-09-17T06:56:51.081Z,58.20
2023-09-17T06:59:18.243Z,59.47
2023-09-17T07:01:46.946Z,59.03
2023-09-17T07:04:13.972Z,59.35
2023-09-17T07:06:40.990Z,61.63
2023-09-17T07:09:09.133Z,58.63
2023-09-17T07:11:36.563Z,59.85
2023-09-17T07:14:10.559Z,59.47
2023-09-17T07:16:38.502Z,62.08
2023-09-17T07:19:06.619Z,55.83
2023-09-17T07:21:33.818Z,59.67
2023-09-17T07:24:00.996Z,58.03
2023-09-17T07:26:29.414Z,60.30
2023-09-17T07:28:56.918Z,56.50
2023-09-17T07:31:24.014Z,55.70
2023-09-17T07:33:51.404Z,56.15
2023-09-17T07:36:18.964Z,52.35
2023-09-17T07:38:46.047Z,57.70
2023-09-17T07:41:13.190Z,56.80
2023-09-17T07:43:40.310Z,58.03
2023-09-17T07:46:07.481Z,54.17
2023-09-17T07:48:34.572Z,51.97
2023-09-17T07:51:02.397Z,52.95
2023-09-17T07:53:29.781Z,52.75
2023-09-17T07:55:57.860Z,51.35
2023-09-17T07:58:25.101Z,55.30
2023-09-17T08:00:52.178Z,52.42
2023-09-17T08:03:20.161Z,48.85
2023-09-17T08:05:48.486Z,49.10
2023-09-17T08:08:18.663Z,46.92
2023-09-17T08:10:45.955Z,47.45
2023-09-17T08:13:13.511Z,50.85
2023-09-17T08:15:40.637Z,53.42
2023-09-17T08:18:07.926Z,55.65
2023-09-17T08:20:35.155Z,42.03
2023-09-17T08:23:02.453Z,47.20
2023-09-17T08:25:32.275Z,50.63
2023-09-17T08:28:00.383Z,46.63
2023-09-17T08:30:27.503Z,42.65
2023-09-17T08:32:54.834Z,45.70
2023-09-17T08:35:22.153Z,43.45
2023-09-17T08:37:50.734Z,45.85
2023-09-17T08:40:21.066Z,35.90
2023-09-17T08:42:50.041Z,34.90
2023-09-17T08:45:18.200Z,34.22
2023-09-17T08:47:45.792Z,38.15
2023-09-17T08:50:13.252Z,35.72
2023-09-17T08:52:47.809Z,32.45
2023-09-17T08:55:18.436Z,31.42
2023-09-17T08:57:53.510Z,31.45
2023-09-17T09:00:23.581Z,30.33
2023-09-17T09:02:56.396Z,28.60
2023-09-17T09:05:26.914Z,32.72
2023-09-17T09:07:57.276Z,29.75
2023-09-17T09:10:25.669Z,30.05
2023-09-17T09:12:53.775Z,29.25
2023-09-17T09:15:21.050Z,25.92
2023-09-17T09:17:48.494Z,26.48
2023-09-17T09:20:19.631Z,25.92
2023-09-17T09:22:46.858Z,29.85
2023-09-17T09:25:15.770Z,25.67
2023-09-17T09:27:43.690Z,32.17
2023-09-17T09:30:13.246Z,33.78
2023-09-17T09:32:42.233Z,28.45
2023-09-17T09:35:10.017Z,28.13
2023-09-17T09:37:37.158Z,29.88
2023-09-17T09:40:06.272Z,26.00
2023-09-17T09:42:33.511Z,29.13
2023-09-17T09:45:00.784Z,27.90
2023-09-17T09:47:27.957Z,27.20
2023-09-17T09:49:55.319Z,29.67
2023-09-17T09:52:23.179Z,27.38
2023-09-17T09:54:50.264Z,29.80
2023-09-17T09:57:20.516Z,27.77
2023-09-17T09:59:51.961Z,23.95
2023-09-17T10:02:22.126Z,22.50
2023-09-17T10:04:50.174Z,19.65
2023-09-17T10:07:18.484Z,18.55
2023-09-17T10:09:45.966Z,16.70
2023-09-17T10:12:13.217Z,16.85
2023-09-17T10:14:41.979Z,18.92
2023-09-17T10:17:11.461Z,18.98
2023-09-17T10:19:40.692Z,19.35
2023-09-17T10:22:10.676Z,19.63
2023-09-17T10:24:38.868Z,18.02
2023-09-17T10:27:10.059Z,18.63
2023-09-17T10:29:39.747Z,20.08
2023-09-17T10:32:08.126Z,21.58
2023-09-17T10:34:36.991Z,19.08
2023-09-17T10:37:06.144Z,18.25
2023-09-17T10:39:34.772Z,15.13
2023-09-17T10:42:04.135Z,14.65
2023-09-17T10:44:32.129Z,16.52
2023-09-17T10:47:02.698Z,12.18
2023-09-17T10:49:33.265Z,13.95
2023-09-17T10:52:00.683Z,14.75
2023-09-17T10:54:27.739Z,14.70
2023-09-17T10:56:56.992Z,13.15
2023-09-17T10:59:25.324Z,11.55
2023-09-17T11:01:54.054Z,8.93
2023-09-17T11:04:24.235Z,9.02
2023-09-17T11:06:52.524Z,9.07
2023-09-17T11:09:20.808Z,7.88
2023-09-17T11:11:48.072Z,11.15
2023-09-17T11:14:17.262Z,10.32
2023-09-17T11:16:48.019Z,11.27
2023-09-17T11:19:22.514Z,9.90
2023-09-17T11:22:11.405Z,9.45
2023-09-17T11:24:39.264Z,9.35
2023-09-17T11:27:09.003Z,11.10
2023-09-17T11:29:41.343Z,11.52
2023-09-17T11:32:09.440Z,15.60
2023-09-17T11:34:40.047Z,16.98
2023-09-17T11:37:07.795Z,20.60
2023-09-17T11:39:36.948Z,23.27
2023-09-17T11:42:07.396Z,28.95
2023-09-17T11:44:37.229Z,23.02
2023-09-17T11:47:06.069Z,31.80
2023-09-17T11:49:34.006Z,37.25
2023-09-17T11:52:01.344Z,35.90
2023-09-17T11:55:04.099Z,38.97
2023-09-17T11:57:31.168Z,40.92
2023-09-17T11:59:59.447Z,50.13
2023-09-17T12:02:27.590Z,43.53
2023-09-17T12:04:56.042Z,57.20
2023-09-17T12:07:23.751Z,49.08
2023-09-17T12:10:02.426Z,49.10
2023-09-17T12:12:31.767Z,45.38
2023-09-17T12:14:59.620Z,40.80
2023-09-17T12:17:26.830Z,41.38
2023-09-17T12:20:14.397Z,39.58
2023-09-17T12:22:41.533Z,35.38
2023-09-17T12:25:20.012Z,29.00
2023-09-17T12:27:48.265Z,24.70
2023-09-17T12:30:16.197Z,25.58
2023-09-17T12:32:43.759Z,24.10
2023-09-17T12:35:10.945Z,23.80
2023-09-17T12:37:38.179Z,23.70
2023-09-17T12:40:08.830Z,26.67
2023-09-17T12:42:36.155Z,26.73
2023-09-17T12:45:03.490Z,25.83
2023-09-17T12:47:30.792Z,33.20
2023-09-17T12:49:58.197Z,19.98
2023-09-17T12:52:25.319Z,20.63
2023-09-17T12:54:56.549Z,20.48
2023-09-17T12:57:24.085Z,18.50
2023-09-17T12:59:52.912Z,22.80
2023-09-17T13:02:29.858Z,19.23
2023-09-17T13:04:57.535Z,17.13
2023-09-17T13:07:26.868Z,14.25
2023-09-17T13:09:59.041Z,16.20
2023-09-17T13:12:28.623Z,16.52
2023-09-17T13:14:59.729Z,19.02
2023-09-17T13:17:29.950Z,16.83
2023-09-17T13:19:58.752Z,14.40
2023-09-17T13:22:26.803Z,16.63
2023-09-17T13:24:54.588Z,16.08
2023-09-17T13:27:24.297Z,16.58
2023-09-17T13:29:56.107Z,14.60
2023-09-17T13:32:23.512Z,13.55
2023-09-17T13:34:51.059Z,20.05
2023-09-17T13:37:18.920Z,15.40
2023-09-17T13:39:50.309Z,16.38
2023-09-17T13:42:17.486Z,17.88
2023-09-17T13:44:44.566Z,14.93
2023-09-17T13:47:13.273Z,15.27
2023-09-17T13:49:42.265Z,17.75
2023-09-17T13:52:10.416Z,16.42
2023-09-17T13:54:43.567Z,12.18
2023-09-17T13:57:11.178Z,13.82
2023-09-17T13:59:38.192Z,13.68
2023-09-17T14:02:05.768Z,14.55
2023-09-17T14:04:34.963Z,18.55
2023-09-17T14:07:02.929Z,15.45
2023-09-17T14:09:29.873Z,13.50
2023-09-17T14:11:56.877Z,12.18
2023-09-17T14:14:23.920Z,12.60
2023-09-17T14:16:50.949Z,14.02
2023-09-17T14:19:19.581Z,11.75
2023-09-17T14:21:47.669Z,14.13
2023-09-17T14:24:15.486Z,10.75
2023-09-17T14:26:42.522Z,11.40
2023-09-17T14:29:09.631Z,13.38
2023-09-17T14:31:39.413Z,9.57
2023-09-17T14:34:07.913Z,11.02
2023-09-17T14:36:35.101Z,12.38
2023-09-17T14:39:02.338Z,12.05
2023-09-17T14:41:30.689Z,11.32
2023-09-17T14:43:57.649Z,11.20
2023-09-17T14:46:24.770Z,14.45
2023-09-17T14:48:53.897Z,11.68
2023-09-17T14:51:21.295Z,11.95
2023-09-17T14:53:48.578Z,11.65
2023-09-17T14:56:16.828Z,13.75
2023-09-17T14:58:43.982Z,13.60
2023-09-17T15:01:17.734Z,12.27
2023-09-17T15:03:53.888Z,15.88
2023-09-17T15:06:21.196Z,11.02
2023-09-17T15:08:48.684Z,13.63
2023-09-17T15:11:16.552Z,12.30
2023-09-17T15:13:43.664Z,10.82
2023-09-17T15:16:10.789Z,12.50
2023-09-17T15:18:37.756Z,12.68
2023-09-17T15:21:04.814Z,15.57
2023-09-17T15:23:32.409Z,13.63
2023-09-17T15:25:59.425Z,11.80
2023-09-17T15:28:30.359Z,13.10
2023-09-17T15:30:57.737Z,12.18
2023-09-17T15:33:24.906Z,12.82
2023-09-17T15:35:55.309Z,17.45
2023-09-17T15:38:22.218Z,15.38
2023-09-17T15:40:53.081Z,14.32
2023-09-17T15:43:20.105Z,14.98
2023-09-17T15:45:47.244Z,13.15
2023-09-17T15:48:14.391Z,16.60
2023-09-17T15:50:44.526Z,11.65
2023-09-17T15:53:11.585Z,12.90
2023-09-17T15:55:38.709Z,11.93
2023-09-17T15:58:06.111Z,11.45
2023-09-17T16:00:33.477Z,11.40
2023-09-17T16:03:00.969Z,12.68
2023-09-17T16:05:28.875Z,12.82
2023-09-17T16:07:55.931Z,13.05
2023-09-17T16:10:24.205Z,13.27
2023-09-17T16:12:51.328Z,11.93
2023-09-17T16:15:18.481Z,20.48
2023-09-17T16:17:45.547Z,15.48
2023-09-17T16:20:12.720Z,15.90
2023-09-17T16:22:39.835Z,13.70
2023-09-17T16:25:09.477Z,16.50
2023-09-17T16:27:36.791Z,14.82
2023-09-17T16:30:08.309Z,17.98
2023-09-17T16:32:36.423Z,18.00
2023-09-17T16:35:04.275Z,18.63
2023-09-17T16:37:31.303Z,23.52
2023-09-17T16:39:58.251Z,18.77
2023-09-17T16:42:25.364Z,18.15
2023-09-17T16:44:52.494Z,20.75
2023-09-17T16:47:20.544Z,23.75
2023-09-17T16:49:48.589Z,23.17
2023-09-17T16:52:15.817Z,25.85
2023-09-17T16:54:43.078Z,25.80
2023-09-17T16:57:13.121Z,24.40
2023-09-17T16:59:40.209Z,27.55
2023-09-17T17:02:08.187Z,23.35
2023-09-17T17:04:35.601Z,26.58
2023-09-17T17:07:03.274Z,27.88
2023-09-17T17:09:30.360Z,25.30
2023-09-17T17:11:57.473Z,28.40
2023-09-17T17:14:24.620Z,31.80
2023-09-17T17:16:51.765Z,25.38
2023-09-17T17:19:18.728Z,26.35
2023-09-17T17:21:45.904Z,27.23
2023-09-17T17:24:12.917Z,25.08
2023-09-17T17:26:41.804Z,22.05
2023-09-17T17:29:08.953Z,24.00
2023-09-17T17:31:36.264Z,33.50
2023-09-17T17:34:04.424Z,21.52
2023-09-17T17:36:31.349Z,29.38
2023-09-17T17:38:58.543Z,25.27
2023-09-17T17:41:25.629Z,24.92
2023-09-17T17:43:52.780Z,22.38
2023-09-17T17:46:19.966Z,21.35
2023-09-17T17:48:48.579Z,22.13
2023-09-17T17:51:15.765Z,23.48
2023-09-17T17:53:42.801Z,26.35
2023-09-17T17:56:11.541Z,20.77
2023-09-17T17:58:38.911Z,21.60
2023-09-17T18:01:06.276Z,18.80
2023-09-17T18:03:33.749Z,18.58
2023-09-17T18:06:00.926Z,19.85
2023-09-17T18:08:28.157Z,20.17
2023-09-17T18:10:55.398Z,17.77
2023-09-17T18:13:22.681Z,19.70
2023-09-17T18:15:50.248Z,17.90
2023-09-17T18:18:18.076Z,19.20
2023-09-17T18:20:45.530Z,17.23
2023-09-17T18:23:12.802Z,16.23
2023-09-17T18:25:40.414Z,18.02
2023-09-17T18:28:10.816Z,16.65
2023-09-17T18:30:38.615Z,14.82
2023-09-17T18:33:07.564Z,14.57
2023-09-17T18:35:35.037Z,13.27
2023-09-17T18:38:02.110Z,15.15
2023-09-17T18:40:29.691Z,13.85
2023-09-17T18:42:56.750Z,16.13
2023-09-17T18:45:24.055Z,21.17
2023-09-17T18:47:51.105Z,12.98
2023-09-17T18:50:18.741Z,15.90
2023-09-17T18:52:46.295Z,10.70
2023-09-17T18:55:13.444Z,12.73
2023-09-17T18:57:41.052Z,13.00
2023-09-17T19:00:09.723Z,17.02
2023-09-17T19:02:41.096Z,9.18
2023-09-17T19:05:08.800Z,9.02
2023-09-17T19:07:36.627Z,9.63
2023-09-17T19:10:05.773Z,10.43
2023-09-17T19:12:33.035Z,7.30
2023-09-17T19:15:00.562Z,7.63
2023-09-17T19:17:28.999Z,6.88
2023-09-17T19:19:59.627Z,9.65
2023-09-17T19:22:26.932Z,8.75
2023-09-17T19:24:54.873Z,8.32
2023-09-17T19:27:22.057Z,6.97
2023-09-17T19:29:50.418Z,15.77
2023-09-17T19:32:18.083Z,8.63
2023-09-17T19:34:45.220Z,7.47
2023-09-17T19:37:15.068Z,7.63
2023-09-17T19:39:42.622Z,7.03
2023-09-17T19:42:09.914Z,7.15
2023-09-17T19:44:38.553Z,8.43
2023-09-17T19:47:06.563Z,8.43
2023-09-17T19:49:33.664Z,13.20
2023-09-17T19:52:00.618Z,7.88
2023-09-17T19:54:27.613Z,5.57
2023-09-17T19:56:54.631Z,6.90
2023-09-17T19:59:21.812Z,9.18
2023-09-17T20:01:49.471Z,8.90
2023-09-17T20:04:16.680Z,10.40
2023-09-17T20:06:54.554Z,6.32
2023-09-17T20:09:23.165Z,6.65
2023-09-17T20:11:50.387Z,8.18
2023-09-17T20:14:17.396Z,9.18
2023-09-17T20:16:44.492Z,11.57
2023-09-17T20:19:12.931Z,8.90
2023-09-17T20:21:40.739Z,7.00
2023-09-17T20:24:08.988Z,7.32
2023-09-17T20:26:39.067Z,10.60
2023-09-17T20:29:06.200Z,8.15
2023-09-17T20:31:33.548Z,7.40
2023-09-17T20:34:02.043Z,7.03
2023-09-17T20:36:29.277Z,7.18
2023-09-17T20:38:59.148Z,8.70
2023-09-17T20:41:28.265Z,7.38
2023-09-17T20:43:55.629Z,7.55
2023-09-17T20:46:23.164Z,8.27
2023-09-17T20:48:50.604Z,11.63
2023-09-17T20:51:17.996Z,8.32
2023-09-17T20:53:45.316Z,10.23
2023-09-17T20:56:13.724Z,7.40
2023-09-17T20:58:41.551Z,6.32
2023-09-17T21:01:08.962Z,7.97
2023-09-17T21:03:36.135Z,7.13
2023-09-17T21:06:04.513Z,6.68
2023-09-17T21:08:31.643Z,5.70
2023-09-17T21:10:59.279Z,7.45
2023-09-17T21:13:26.542Z,9.65
2023-09-17T21:15:54.744Z,7.72
2023-09-17T21:18:21.876Z,7.82
2023-09-17T21:20:48.846Z,6.45
2023-09-17T21:23:16.121Z,9.05
2023-09-17T21:25:43.572Z,7.22
2023-09-17T21:28:11.125Z,8.98
2023-09-17T21:30:38.414Z,13.82
2023-09-17T21:33:06.693Z,8.15
2023-09-17T21:35:34.057Z,6.82
2023-09-17T21:38:01.448Z,6.18
2023-09-17T21:40:28.807Z,7.28
2023-09-17T21:42:55.720Z,10.65
2023-09-17T21:45:22.830Z,5.25
2023-09-17T21:47:49.957Z,7.75
2023-09-17T21:50:17.035Z,7.25
2023-09-17T21:52:44.126Z,18.13
2023-09-17T21:55:11.111Z,9.50
2023-09-17T21:57:38.331Z,7.43
2023-09-17T22:00:06.717Z,7.05
2023-09-17T22:02:33.930Z,10.20
2023-09-17T22:05:01.226Z,7.78
2023-09-17T22:07:28.729Z,7.25
2023-09-17T22:09:55.841Z,5.65
2023-09-17T22:12:23.252Z,6.68
2023-09-17T22:14:50.442Z,13.85
2023-09-17T22:17:17.737Z,9.68
2023-09-17T22:19:50.126Z,10.15
2023-09-17T22:22:17.192Z,8.88
2023-09-17T22:24:45.450Z,10.93
2023-09-17T22:27:14.318Z,13.25
2023-09-17T22:29:43.199Z,9.85
2023-09-17T22:32:10.381Z,8.85
2023-09-17T22:34:37.583Z,12.60
2023-09-17T22:37:04.998Z,10.07
2023-09-17T22:39:31.959Z,8.13
2023-09-17T22:41:59.073Z,12.15
2023-09-17T22:44:26.156Z,8.65
2023-09-17T22:46:53.369Z,13.45
2023-09-17T22:49:20.405Z,9.95
2023-09-17T22:51:47.454Z,7.78
2023-09-17T22:54:14.482Z,6.72
2023-09-17T22:56:41.841Z,7.15
2023-09-17T22:59:10.146Z,9.98
2023-09-17T23:01:40.215Z,10.77
2023-09-17T23:04:10.666Z,7.70
2023-09-17T23:06:38.010Z,10.07
2023-09-17T23:09:05.732Z,10.50
2023-09-17T23:11:33.278Z,14.55
2023-09-17T23:14:02.560Z,7.53
2023-09-17T23:16:29.638Z,9.48
2023-09-17T23:18:56.870Z,10.15
2023-09-17T23:21:23.896Z,10.77
2023-09-17T23:23:54.300Z,9.98
2023-09-17T23:26:25.018Z,10.57
2023-09-17T23:28:52.331Z,11.45
2023-09-17T23:31:19.884Z,10.23
2023-09-17T23:33:46.919Z,7.10
2023-09-17T23:36:14.027Z,10.40
2023-09-17T23:38:41.343Z,7.78
2023-09-17T23:41:09.710Z,10.50
2023-09-17T23:43:38.829Z,6.88
2023-09-17T23:46:06.357Z,8.85
2023-09-17T23:48:33.516Z,9.07
2023-09-17T23:51:03.020Z,11.73
2023-09-17T23:53:30.594Z,7.80
2023-09-17T23:55:57.883Z,13.10
2023-09-17T23:58:25.025Z,8.90
